sensor_id;sensor_type;location;lat;lon;timestamp;P1;P2;P0
74086;PMS7003;62445;48.406;-4.518;2023-03-14T00:01:53;5.50;4.75;3.00
74086;PMS7003;62445;48.406;-4.518;2023-03-14T00:04:19;3.25;3.25;3.00
74086;PMS7003;62445;48.406;-4.518;2023-03-14T00:06:44;3.50;3.50;3.00
74086;PMS7003;62445;48.406;-4.518;2023-03-14T00:09:11;5.00;4.00;4.00
74086;PMS7003;62445;48.406;-4.518;2023-03-14T00:11:37;4.25;4.00;3.25
74086;PMS7003;62445;48.406;-4.518;2023-03-14T00:14:03;2.25;2.25;2.00
74086;PMS7003;62445;48.406;-4.518;2023-03-14T00:16:28;5.00;3.00;2.50
74086;PMS7003;62445;48.406;-4.518;2023-03-14T00:18:54;3.25;2.50;2.00
74086;PMS7003;62445;48.406;-4.518;2023-03-14T00:21:19;3.00;3.00;2.25
74086;PMS7003;62445;48.406;-4.518;2023-03-14T00:23:45;2.75;2.75;2.25
74086;PMS7003;62445;48.406;-4.518;2023-03-14T00:26:11;3.00;2.75;2.00
74086;PMS7003;62445;48.406;-4.518;2023-03-14T00:28:39;3.25;3.00;2.00
74086;PMS7003;62445;48.406;-4.518;2023-03-14T00:31:06;1.75;1.00;1.00
74086;PMS7003;62445;48.406;-4.518;2023-03-14T00:33:32;0.00;0.00;0.00
74086;PMS7003;62445;48.406;-4.518;2023-03-14T00:35:59;3.00;3.00;2.50
74086;PMS7003;62445;48.406;-4.518;2023-03-14T00:38:27;3.75;2.75;2.00
74086;PMS7003;62445;48.406;-4.518;2023-03-14T00:40:53;2.00;2.00;1.25
74086;PMS7003;62445;48.406;-4.518;2023-03-14T00:43:18;3.00;2.00;2.00
74086;PMS7003;62445;48.406;-4.518;2023-03-14T00:45:48;2.00;2.00;2.00
74086;PMS7003;62445;48.406;-4.518;2023-03-14T00:48:14;2.00;2.00;2.00
74086;PMS7003;62445;48.406;-4.518;2023-03-14T00:50:40;3.25;1.00;1.00
74086;PMS7003;62445;48.406;-4.518;2023-03-14T00:53:05;4.00;3.00;2.00
74086;PMS7003;62445;48.406;-4.518;2023-03-14T00:55:31;1.00;1.00;1.00
74086;PMS7003;62445;48.406;-4.518;2023-03-14T00:57:56;1.00;1.00;1.00
74086;PMS7003;62445;48.406;-4.518;2023-03-14T01:00:21;2.00;2.00;1.25
74086;PMS7003;62445;48.406;-4.518;2023-03-14T01:02:48;1.00;1.00;1.00
74086;PMS7003;62445;48.406;-4.518;2023-03-14T01:05:13;2.00;2.00;2.00
74086;PMS7003;62445;48.406;-4.518;2023-03-14T01:07:38;1.75;1.75;1.75
74086;PMS7003;62445;48.406;-4.518;2023-03-14T01:10:04;1.25;1.25;1.00
74086;PMS7003;62445;48.406;-4.518;2023-03-14T01:12:31;1.25;1.00;1.00
74086;PMS7003;62445;48.406;-4.518;2023-03-14T01:14:56;1.25;1.00;0.75
74086;PMS7003;62445;48.406;-4.518;2023-03-14T01:17:22;2.00;1.50;1.00
74086;PMS7003;62445;48.406;-4.518;2023-03-14T01:19:48;3.00;1.75;1.00
74086;PMS7003;62445;48.406;-4.518;2023-03-14T01:22:13;1.75;1.00;1.00
74086;PMS7003;62445;48.406;-4.518;2023-03-14T01:24:38;2.50;1.00;1.00
74086;PMS7003;62445;48.406;-4.518;2023-03-14T01:27:04;1.00;1.00;1.00
74086;PMS7003;62445;48.406;-4.518;2023-03-14T01:29:29;2.00;1.00;1.00
74086;PMS7003;62445;48.406;-4.518;2023-03-14T01:31:55;1.75;1.75;1.00
74086;PMS7003;62445;48.406;-4.518;2023-03-14T01:34:20;1.50;1.00;0.00
74086;PMS7003;62445;48.406;-4.518;2023-03-14T01:36:45;2.00;2.00;1.00
74086;PMS7003;62445;48.406;-4.518;2023-03-14T01:39:11;1.00;1.00;1.00
74086;PMS7003;62445;48.406;-4.518;2023-03-14T01:41:38;0.75;0.75;0.50
74086;PMS7003;62445;48.406;-4.518;2023-03-14T01:44:04;1.00;0.50;0.50
74086;PMS7003;62445;48.406;-4.518;2023-03-14T01:46:34;0.75;0.75;0.75
74086;PMS7003;62445;48.406;-4.518;2023-03-14T01:51:56;1.00;1.00;0.25
74086;PMS7003;62445;48.406;-4.518;2023-03-14T01:54:39;1.75;1.75;1.00
74086;PMS7003;62445;48.406;-4.518;2023-03-14T01:59:48;0.50;0.25;0.00
74086;PMS7003;62445;48.406;-4.518;2023-03-14T02:02:36;0.50;0.50;0.25
74086;PMS7003;62445;48.406;-4.518;2023-03-14T02:05:03;1.00;1.00;1.00
74086;PMS7003;62445;48.406;-4.518;2023-03-14T02:07:36;2.00;2.00;0.00
74086;PMS7003;62445;48.406;-4.518;2023-03-14T02:10:06;2.00;0.25;0.00
74086;PMS7003;62445;48.406;-4.518;2023-03-14T02:12:33;0.25;0.25;0.00
74086;PMS7003;62445;48.406;-4.518;2023-03-14T02:14:59;1.25;1.00;1.00
74086;PMS7003;62445;48.406;-4.518;2023-03-14T02:17:25;1.75;0.25;0.25
74086;PMS7003;62445;48.406;-4.518;2023-03-14T02:19:57;1.00;1.00;1.00
74086;PMS7003;62445;48.406;-4.518;2023-03-14T02:22:45;0.00;0.00;0.00
74086;PMS7003;62445;48.406;-4.518;2023-03-14T02:27:37;0.00;0.00;0.00
74086;PMS7003;62445;48.406;-4.518;2023-03-14T02:30:13;0.00;0.00;0.00
74086;PMS7003;62445;48.406;-4.518;2023-03-14T02:32:46;0.00;0.00;0.00
74086;PMS7003;62445;48.406;-4.518;2023-03-14T02:35:16;0.00;0.00;0.00
74086;PMS7003;62445;48.406;-4.518;2023-03-14T02:37:48;1.00;1.00;0.00
74086;PMS7003;62445;48.406;-4.518;2023-03-14T02:40:17;2.00;0.25;0.00
74086;PMS7003;62445;48.406;-4.518;2023-03-14T02:42:42;1.00;1.00;1.00
74086;PMS7003;62445;48.406;-4.518;2023-03-14T02:47:33;1.00;1.00;1.00
74086;PMS7003;62445;48.406;-4.518;2023-03-14T02:50:04;0.50;0.25;0.00
74086;PMS7003;62445;48.406;-4.518;2023-03-14T02:52:34;0.00;0.00;0.00
74086;PMS7003;62445;48.406;-4.518;2023-03-14T02:55:00;1.00;0.00;0.00
74086;PMS7003;62445;48.406;-4.518;2023-03-14T02:57:25;0.00;0.00;0.00
74086;PMS7003;62445;48.406;-4.518;2023-03-14T02:59:51;1.00;1.00;0.75
74086;PMS7003;62445;48.406;-4.518;2023-03-14T03:02:16;1.00;0.00;0.00
74086;PMS7003;62445;48.406;-4.518;2023-03-14T03:04:42;1.00;1.00;1.00
74086;PMS7003;62445;48.406;-4.518;2023-03-14T03:07:07;2.75;0.00;0.00
74086;PMS7003;62445;48.406;-4.518;2023-03-14T03:09:33;1.00;1.00;1.00
74086;PMS7003;62445;48.406;-4.518;2023-03-14T03:11:58;0.00;0.00;0.00
74086;PMS7003;62445;48.406;-4.518;2023-03-14T03:14:24;0.00;0.00;0.00
74086;PMS7003;62445;48.406;-4.518;2023-03-14T03:16:49;0.25;0.25;0.00
74086;PMS7003;62445;48.406;-4.518;2023-03-14T03:19:15;1.50;0.50;0.00
74086;PMS7003;62445;48.406;-4.518;2023-03-14T03:21:42;0.00;0.00;0.00
74086;PMS7003;62445;48.406;-4.518;2023-03-14T03:24:08;0.75;0.75;0.50
74086;PMS7003;62445;48.406;-4.518;2023-03-14T03:26:34;0.00;0.00;0.00
74086;PMS7003;62445;48.406;-4.518;2023-03-14T03:29:00;2.75;1.00;1.00
74086;PMS7003;62445;48.406;-4.518;2023-03-14T03:31:25;0.00;0.00;0.00
74086;PMS7003;62445;48.406;-4.518;2023-03-14T03:33:51;0.50;0.50;0.00
74086;PMS7003;62445;48.406;-4.518;2023-03-14T03:36:20;2.00;0.25;0.25
74086;PMS7003;62445;48.406;-4.518;2023-03-14T03:38:47;0.25;0.25;0.00
74086;PMS7003;62445;48.406;-4.518;2023-03-14T03:41:13;0.00;0.00;0.00
74086;PMS7003;62445;48.406;-4.518;2023-03-14T03:43:38;0.25;0.00;0.00
74086;PMS7003;62445;48.406;-4.518;2023-03-14T03:46:04;0.00;0.00;0.00
74086;PMS7003;62445;48.406;-4.518;2023-03-14T03:48:30;0.25;0.25;0.25
74086;PMS7003;62445;48.406;-4.518;2023-03-14T03:50:56;0.25;0.00;0.00
74086;PMS7003;62445;48.406;-4.518;2023-03-14T03:53:21;0.00;0.00;0.00
74086;PMS7003;62445;48.406;-4.518;2023-03-14T03:55:47;0.75;0.25;0.00
74086;PMS7003;62445;48.406;-4.518;2023-03-14T03:58:12;1.00;1.00;0.00
74086;PMS7003;62445;48.406;-4.518;2023-03-14T04:00:37;0.00;0.00;0.00
74086;PMS7003;62445;48.406;-4.518;2023-03-14T04:03:04;2.25;0.00;0.00
74086;PMS7003;62445;48.406;-4.518;2023-03-14T04:05:30;0.00;0.00;0.00
74086;PMS7003;62445;48.406;-4.518;2023-03-14T04:07:56;0.00;0.00;0.00
74086;PMS7003;62445;48.406;-4.518;2023-03-14T04:10:22;0.00;0.00;0.00
74086;PMS7003;62445;48.406;-4.518;2023-03-14T04:12:47;0.25;0.00;0.00
74086;PMS7003;62445;48.406;-4.518;2023-03-14T04:15:12;0.00;0.00;0.00
74086;PMS7003;62445;48.406;-4.518;2023-03-14T04:17:38;0.00;0.00;0.00
74086;PMS7003;62445;48.406;-4.518;2023-03-14T04:20:03;0.00;0.00;0.00
74086;PMS7003;62445;48.406;-4.518;2023-03-14T04:22:29;0.00;0.00;0.00
74086;PMS7003;62445;48.406;-4.518;2023-03-14T04:24:55;0.00;0.00;0.00
74086;PMS7003;62445;48.406;-4.518;2023-03-14T04:27:20;1.25;1.00;0.00
74086;PMS7003;62445;48.406;-4.518;2023-03-14T04:29:46;0.00;0.00;0.00
74086;PMS7003;62445;48.406;-4.518;2023-03-14T04:32:11;1.75;0.00;0.00
74086;PMS7003;62445;48.406;-4.518;2023-03-14T04:34:36;0.00;0.00;0.00
74086;PMS7003;62445;48.406;-4.518;2023-03-14T04:37:02;0.00;0.00;0.00
74086;PMS7003;62445;48.406;-4.518;2023-03-14T04:39:28;0.00;0.00;0.00
74086;PMS7003;62445;48.406;-4.518;2023-03-14T04:41:53;0.00;0.00;0.00
74086;PMS7003;62445;48.406;-4.518;2023-03-14T04:44:19;0.00;0.00;0.00
74086;PMS7003;62445;48.406;-4.518;2023-03-14T04:46:44;0.00;0.00;0.00
74086;PMS7003;62445;48.406;-4.518;2023-03-14T04:49:09;0.00;0.00;0.00
74086;PMS7003;62445;48.406;-4.518;2023-03-14T04:51:35;0.00;0.00;0.00
74086;PMS7003;62445;48.406;-4.518;2023-03-14T04:54:00;0.00;0.00;0.00
74086;PMS7003;62445;48.406;-4.518;2023-03-14T04:56:26;0.00;0.00;0.00
74086;PMS7003;62445;48.406;-4.518;2023-03-14T04:58:52;0.00;0.00;0.00
74086;PMS7003;62445;48.406;-4.518;2023-03-14T05:01:18;0.00;0.00;0.00
74086;PMS7003;62445;48.406;-4.518;2023-03-14T05:03:43;0.00;0.00;0.00
74086;PMS7003;62445;48.406;-4.518;2023-03-14T05:06:09;0.25;0.00;0.00
74086;PMS7003;62445;48.406;-4.518;2023-03-14T05:08:34;0.00;0.00;0.00
74086;PMS7003;62445;48.406;-4.518;2023-03-14T05:11:00;2.00;1.00;0.00
74086;PMS7003;62445;48.406;-4.518;2023-03-14T05:13:25;0.00;0.00;0.00
74086;PMS7003;62445;48.406;-4.518;2023-03-14T05:15:51;0.25;0.00;0.00
74086;PMS7003;62445;48.406;-4.518;2023-03-14T05:18:17;3.00;0.00;0.00
74086;PMS7003;62445;48.406;-4.518;2023-03-14T05:20:43;0.00;0.00;0.00
74086;PMS7003;62445;48.406;-4.518;2023-03-14T05:23:09;0.00;0.00;0.00
74086;PMS7003;62445;48.406;-4.518;2023-03-14T05:25:34;0.00;0.00;0.00
74086;PMS7003;62445;48.406;-4.518;2023-03-14T05:28:00;0.00;0.00;0.00
74086;PMS7003;62445;48.406;-4.518;2023-03-14T05:30:25;0.00;0.00;0.00
74086;PMS7003;62445;48.406;-4.518;2023-03-14T05:32:50;0.00;0.00;0.00
74086;PMS7003;62445;48.406;-4.518;2023-03-14T05:35:16;0.00;0.00;0.00
74086;PMS7003;62445;48.406;-4.518;2023-03-14T05:37:41;0.00;0.00;0.00
74086;PMS7003;62445;48.406;-4.518;2023-03-14T05:40:07;0.00;0.00;0.00
74086;PMS7003;62445;48.406;-4.518;2023-03-14T05:42:33;0.50;0.00;0.00
74086;PMS7003;62445;48.406;-4.518;2023-03-14T05:44:59;0.25;0.00;0.00
74086;PMS7003;62445;48.406;-4.518;2023-03-14T05:47:24;0.25;0.00;0.00
74086;PMS7003;62445;48.406;-4.518;2023-03-14T05:49:50;0.00;0.00;0.00
74086;PMS7003;62445;48.406;-4.518;2023-03-14T05:52:15;0.00;0.00;0.00
74086;PMS7003;62445;48.406;-4.518;2023-03-14T05:54:41;0.00;0.00;0.00
74086;PMS7003;62445;48.406;-4.518;2023-03-14T05:57:07;1.00;0.00;0.00
74086;PMS7003;62445;48.406;-4.518;2023-03-14T05:59:32;0.00;0.00;0.00
74086;PMS7003;62445;48.406;-4.518;2023-03-14T06:01:58;0.00;0.00;0.00
74086;PMS7003;62445;48.406;-4.518;2023-03-14T06:04:23;0.00;0.00;0.00
74086;PMS7003;62445;48.406;-4.518;2023-03-14T06:06:49;0.00;0.00;0.00
74086;PMS7003;62445;48.406;-4.518;2023-03-14T06:09:14;0.00;0.00;0.00
74086;PMS7003;62445;48.406;-4.518;2023-03-14T06:11:40;0.00;0.00;0.00
74086;PMS7003;62445;48.406;-4.518;2023-03-14T06:14:05;0.00;0.00;0.00
74086;PMS7003;62445;48.406;-4.518;2023-03-14T06:16:31;1.50;0.00;0.00
74086;PMS7003;62445;48.406;-4.518;2023-03-14T06:18:57;0.00;0.00;0.00
74086;PMS7003;62445;48.406;-4.518;2023-03-14T06:21:22;0.00;0.00;0.00
74086;PMS7003;62445;48.406;-4.518;2023-03-14T06:23:48;0.00;0.00;0.00
74086;PMS7003;62445;48.406;-4.518;2023-03-14T06:26:13;0.00;0.00;0.00
74086;PMS7003;62445;48.406;-4.518;2023-03-14T06:28:38;0.00;0.00;0.00
74086;PMS7003;62445;48.406;-4.518;2023-03-14T06:31:04;0.50;0.50;0.00
74086;PMS7003;62445;48.406;-4.518;2023-03-14T06:33:30;0.00;0.00;0.00
74086;PMS7003;62445;48.406;-4.518;2023-03-14T06:35:55;0.25;0.25;0.00
74086;PMS7003;62445;48.406;-4.518;2023-03-14T06:38:21;0.50;0.00;0.00
74086;PMS7003;62445;48.406;-4.518;2023-03-14T06:40:46;1.00;0.00;0.00
74086;PMS7003;62445;48.406;-4.518;2023-03-14T06:43:11;0.00;0.00;0.00
74086;PMS7003;62445;48.406;-4.518;2023-03-14T06:45:37;0.00;0.00;0.00
74086;PMS7003;62445;48.406;-4.518;2023-03-14T06:48:02;0.00;0.00;0.00
74086;PMS7003;62445;48.406;-4.518;2023-03-14T06:50:28;0.00;0.00;0.00
74086;PMS7003;62445;48.406;-4.518;2023-03-14T06:52:53;1.25;0.00;0.00
74086;PMS7003;62445;48.406;-4.518;2023-03-14T06:55:18;0.00;0.00;0.00
74086;PMS7003;62445;48.406;-4.518;2023-03-14T06:57:44;0.00;0.00;0.00
74086;PMS7003;62445;48.406;-4.518;2023-03-14T07:00:10;0.00;0.00;0.00
74086;PMS7003;62445;48.406;-4.518;2023-03-14T07:02:36;0.50;0.00;0.00
74086;PMS7003;62445;48.406;-4.518;2023-03-14T07:05:02;0.00;0.00;0.00
74086;PMS7003;62445;48.406;-4.518;2023-03-14T07:07:28;0.00;0.00;0.00
74086;PMS7003;62445;48.406;-4.518;2023-03-14T07:09:53;0.00;0.00;0.00
74086;PMS7003;62445;48.406;-4.518;2023-03-14T07:12:19;0.00;0.00;0.00
74086;PMS7003;62445;48.406;-4.518;2023-03-14T07:14:44;0.00;0.00;0.00
74086;PMS7003;62445;48.406;-4.518;2023-03-14T07:17:10;0.00;0.00;0.00
74086;PMS7003;62445;48.406;-4.518;2023-03-14T07:19:35;0.00;0.00;0.00
74086;PMS7003;62445;48.406;-4.518;2023-03-14T07:22:01;1.00;0.00;0.00
74086;PMS7003;62445;48.406;-4.518;2023-03-14T07:24:26;0.00;0.00;0.00
74086;PMS7003;62445;48.406;-4.518;2023-03-14T07:26:51;0.00;0.00;0.00
74086;PMS7003;62445;48.406;-4.518;2023-03-14T07:29:17;2.00;1.00;1.00
74086;PMS7003;62445;48.406;-4.518;2023-03-14T07:31:43;0.00;0.00;0.00
74086;PMS7003;62445;48.406;-4.518;2023-03-14T07:34:08;1.00;0.00;0.00
74086;PMS7003;62445;48.406;-4.518;2023-03-14T07:36:33;0.00;0.00;0.00
74086;PMS7003;62445;48.406;-4.518;2023-03-14T07:38:59;0.00;0.00;0.00
74086;PMS7003;62445;48.406;-4.518;2023-03-14T07:41:24;0.75;0.00;0.00
74086;PMS7003;62445;48.406;-4.518;2023-03-14T07:43:50;0.00;0.00;0.00
74086;PMS7003;62445;48.406;-4.518;2023-03-14T07:46:15;1.00;0.00;0.00
74086;PMS7003;62445;48.406;-4.518;2023-03-14T07:48:41;0.00;0.00;0.00
74086;PMS7003;62445;48.406;-4.518;2023-03-14T07:51:06;0.00;0.00;0.00
74086;PMS7003;62445;48.406;-4.518;2023-03-14T07:53:32;1.00;0.00;0.00
74086;PMS7003;62445;48.406;-4.518;2023-03-14T07:55:58;0.00;0.00;0.00
74086;PMS7003;62445;48.406;-4.518;2023-03-14T07:58:23;0.00;0.00;0.00
74086;PMS7003;62445;48.406;-4.518;2023-03-14T08:00:49;0.25;0.00;0.00
74086;PMS7003;62445;48.406;-4.518;2023-03-14T08:03:15;0.00;0.00;0.00
74086;PMS7003;62445;48.406;-4.518;2023-03-14T08:05:41;0.00;0.00;0.00
74086;PMS7003;62445;48.406;-4.518;2023-03-14T08:08:07;0.00;0.00;0.00
74086;PMS7003;62445;48.406;-4.518;2023-03-14T08:10:32;0.00;0.00;0.00
74086;PMS7003;62445;48.406;-4.518;2023-03-14T08:13:00;0.50;0.00;0.00
74086;PMS7003;62445;48.406;-4.518;2023-03-14T08:15:25;0.00;0.00;0.00
74086;PMS7003;62445;48.406;-4.518;2023-03-14T08:17:52;1.75;0.00;0.00
74086;PMS7003;62445;48.406;-4.518;2023-03-14T08:20:19;0.00;0.00;0.00
74086;PMS7003;62445;48.406;-4.518;2023-03-14T08:22:49;0.00;0.00;0.00
74086;PMS7003;62445;48.406;-4.518;2023-03-14T08:25:14;0.00;0.00;0.00
74086;PMS7003;62445;48.406;-4.518;2023-03-14T08:27:41;0.00;0.00;0.00
74086;PMS7003;62445;48.406;-4.518;2023-03-14T08:30:09;0.00;0.00;0.00
74086;PMS7003;62445;48.406;-4.518;2023-03-14T08:32:36;0.00;0.00;0.00
74086;PMS7003;62445;48.406;-4.518;2023-03-14T08:35:02;0.50;0.00;0.00
74086;PMS7003;62445;48.406;-4.518;2023-03-14T08:37:28;1.75;0.00;0.00
74086;PMS7003;62445;48.406;-4.518;2023-03-14T08:39:53;0.00;0.00;0.00
74086;PMS7003;62445;48.406;-4.518;2023-03-14T08:42:19;0.00;0.00;0.00
74086;PMS7003;62445;48.406;-4.518;2023-03-14T08:44:44;0.00;0.00;0.00
74086;PMS7003;62445;48.406;-4.518;2023-03-14T08:47:10;0.75;0.00;0.00
74086;PMS7003;62445;48.406;-4.518;2023-03-14T08:49:35;1.00;0.00;0.00
74086;PMS7003;62445;48.406;-4.518;2023-03-14T08:52:04;0.25;0.00;0.00
74086;PMS7003;62445;48.406;-4.518;2023-03-14T08:54:30;0.00;0.00;0.00
74086;PMS7003;62445;48.406;-4.518;2023-03-14T08:56:56;0.00;0.00;0.00
74086;PMS7003;62445;48.406;-4.518;2023-03-14T08:59:22;0.00;0.00;0.00
74086;PMS7003;62445;48.406;-4.518;2023-03-14T09:01:48;0.00;0.00;0.00
74086;PMS7003;62445;48.406;-4.518;2023-03-14T09:04:14;0.00;0.00;0.00
74086;PMS7003;62445;48.406;-4.518;2023-03-14T09:06:39;0.00;0.00;0.00
74086;PMS7003;62445;48.406;-4.518;2023-03-14T09:09:05;0.00;0.00;0.00
74086;PMS7003;62445;48.406;-4.518;2023-03-14T09:11:31;0.00;0.00;0.00
74086;PMS7003;62445;48.406;-4.518;2023-03-14T09:13:56;1.00;0.00;0.00
74086;PMS7003;62445;48.406;-4.518;2023-03-14T09:16:22;0.00;0.00;0.00
74086;PMS7003;62445;48.406;-4.518;2023-03-14T09:18:48;0.00;0.00;0.00
74086;PMS7003;62445;48.406;-4.518;2023-03-14T09:21:13;0.00;0.00;0.00
74086;PMS7003;62445;48.406;-4.518;2023-03-14T09:23:39;1.00;1.00;0.00
74086;PMS7003;62445;48.406;-4.518;2023-03-14T09:26:05;1.50;0.00;0.00
74086;PMS7003;62445;48.406;-4.518;2023-03-14T09:28:31;0.00;0.00;0.00
74086;PMS7003;62445;48.406;-4.518;2023-03-14T09:30:56;0.00;0.00;0.00
74086;PMS7003;62445;48.406;-4.518;2023-03-14T09:33:22;0.00;0.00;0.00
74086;PMS7003;62445;48.406;-4.518;2023-03-14T09:35:48;0.00;0.00;0.00
74086;PMS7003;62445;48.406;-4.518;2023-03-14T09:38:14;0.00;0.00;0.00
74086;PMS7003;62445;48.406;-4.518;2023-03-14T09:40:40;0.75;0.75;0.00
74086;PMS7003;62445;48.406;-4.518;2023-03-14T09:43:05;1.00;0.00;0.00
74086;PMS7003;62445;48.406;-4.518;2023-03-14T09:45:35;1.75;0.00;0.00
74086;PMS7003;62445;48.406;-4.518;2023-03-14T09:48:04;0.00;0.00;0.00
74086;PMS7003;62445;48.406;-4.518;2023-03-14T09:50:37;3.00;0.00;0.00
74086;PMS7003;62445;48.406;-4.518;2023-03-14T09:53:09;0.00;0.00;0.00
74086;PMS7003;62445;48.406;-4.518;2023-03-14T09:55:39;0.75;0.00;0.00
74086;PMS7003;62445;48.406;-4.518;2023-03-14T09:58:11;0.00;0.00;0.00
74086;PMS7003;62445;48.406;-4.518;2023-03-14T10:00:38;0.00;0.00;0.00
74086;PMS7003;62445;48.406;-4.518;2023-03-14T10:05:39;0.25;0.00;0.00
74086;PMS7003;62445;48.406;-4.518;2023-03-14T10:08:05;0.00;0.00;0.00
74086;PMS7003;62445;48.406;-4.518;2023-03-14T10:10:31;0.00;0.00;0.00
74086;PMS7003;62445;48.406;-4.518;2023-03-14T10:12:58;0.00;0.00;0.00
74086;PMS7003;62445;48.406;-4.518;2023-03-14T10:15:30;2.00;0.00;0.00
74086;PMS7003;62445;48.406;-4.518;2023-03-14T10:18:01;0.00;0.00;0.00
74086;PMS7003;62445;48.406;-4.518;2023-03-14T10:22:59;0.00;0.00;0.00
74086;PMS7003;62445;48.406;-4.518;2023-03-14T10:25:27;1.00;1.00;0.00
74086;PMS7003;62445;48.406;-4.518;2023-03-14T10:27:54;1.00;0.00;0.00
74086;PMS7003;62445;48.406;-4.518;2023-03-14T10:33:11;0.75;0.75;0.25
74086;PMS7003;62445;48.406;-4.518;2023-03-14T10:36:21;0.50;0.00;0.00
74086;PMS7003;62445;48.406;-4.518;2023-03-14T10:38:39;0.00;0.00;0.00
74086;PMS7003;62445;48.406;-4.518;2023-03-14T10:41:47;0.00;0.00;0.00
74086;PMS7003;62445;48.406;-4.518;2023-03-14T10:43:59;0.50;0.00;0.00
74086;PMS7003;62445;48.406;-4.518;2023-03-14T10:46:25;0.00;0.00;0.00
74086;PMS7003;62445;48.406;-4.518;2023-03-14T10:48:54;0.25;0.25;0.00
74086;PMS7003;62445;48.406;-4.518;2023-03-14T10:51:27;1.00;1.00;0.25
74086;PMS7003;62445;48.406;-4.518;2023-03-14T10:56:59;0.00;0.00;0.00
74086;PMS7003;62445;48.406;-4.518;2023-03-14T10:59:27;0.75;0.75;0.00
74086;PMS7003;62445;48.406;-4.518;2023-03-14T11:01:59;0.00;0.00;0.00
74086;PMS7003;62445;48.406;-4.518;2023-03-14T11:07:12;0.00;0.00;0.00
74086;PMS7003;62445;48.406;-4.518;2023-03-14T11:09:50;0.25;0.25;0.25
74086;PMS7003;62445;48.406;-4.518;2023-03-14T11:15:38;0.00;0.00;0.00
74086;PMS7003;62445;48.406;-4.518;2023-03-14T11:18:22;0.00;0.00;0.00
74086;PMS7003;62445;48.406;-4.518;2023-03-14T11:21:11;0.00;0.00;0.00
74086;PMS7003;62445;48.406;-4.518;2023-03-14T11:28:41;0.00;0.00;0.00
74086;PMS7003;62445;48.406;-4.518;2023-03-14T11:31:29;0.00;0.00;0.00
74086;PMS7003;62445;48.406;-4.518;2023-03-14T11:36:41;0.00;0.00;0.00
74086;PMS7003;62445;48.406;-4.518;2023-03-14T11:39:15;1.00;0.00;0.00
74086;PMS7003;62445;48.406;-4.518;2023-03-14T11:41:43;0.75;0.75;0.50
74086;PMS7003;62445;48.406;-4.518;2023-03-14T11:44:17;0.00;0.00;0.00
74086;PMS7003;62445;48.406;-4.518;2023-03-14T11:46:53;0.00;0.00;0.00
74086;PMS7003;62445;48.406;-4.518;2023-03-14T11:52:20;0.25;0.00;0.00
74086;PMS7003;62445;48.406;-4.518;2023-03-14T11:54:53;0.25;0.00;0.00
74086;PMS7003;62445;48.406;-4.518;2023-03-14T11:57:25;0.50;0.00;0.00
74086;PMS7003;62445;48.406;-4.518;2023-03-14T12:10:49;0.00;0.00;0.00
74086;PMS7003;62445;48.406;-4.518;2023-03-14T12:13:28;0.00;0.00;0.00
74086;PMS7003;62445;48.406;-4.518;2023-03-14T12:15:57;0.00;0.00;0.00
74086;PMS7003;62445;48.406;-4.518;2023-03-14T12:18:32;0.00;0.00;0.00
74086;PMS7003;62445;48.406;-4.518;2023-03-14T12:21:03;0.00;0.00;0.00
74086;PMS7003;62445;48.406;-4.518;2023-03-14T12:23:36;1.00;0.00;0.00
74086;PMS7003;62445;48.406;-4.518;2023-03-14T12:28:39;0.00;0.00;0.00
74086;PMS7003;62445;48.406;-4.518;2023-03-14T12:36:53;0.00;0.00;0.00
74086;PMS7003;62445;48.406;-4.518;2023-03-14T12:44:43;0.00;0.00;0.00
74086;PMS7003;62445;48.406;-4.518;2023-03-14T12:49:49;0.00;0.00;0.00
74086;PMS7003;62445;48.406;-4.518;2023-03-14T12:52:21;0.00;0.00;0.00
74086;PMS7003;62445;48.406;-4.518;2023-03-14T13:00:16;1.00;0.00;0.00
74086;PMS7003;62445;48.406;-4.518;2023-03-14T13:02:43;0.00;0.00;0.00
74086;PMS7003;62445;48.406;-4.518;2023-03-14T13:12:37;0.00;0.00;0.00
74086;PMS7003;62445;48.406;-4.518;2023-03-14T13:15:15;0.00;0.00;0.00
74086;PMS7003;62445;48.406;-4.518;2023-03-14T13:18:10;0.00;0.00;0.00
74086;PMS7003;62445;48.406;-4.518;2023-03-14T13:20:40;0.00;0.00;0.00
74086;PMS7003;62445;48.406;-4.518;2023-03-14T13:23:20;0.00;0.00;0.00
74086;PMS7003;62445;48.406;-4.518;2023-03-14T13:25:53;0.00;0.00;0.00
74086;PMS7003;62445;48.406;-4.518;2023-03-14T13:28:19;0.00;0.00;0.00
74086;PMS7003;62445;48.406;-4.518;2023-03-14T13:30:45;0.25;0.00;0.00
74086;PMS7003;62445;48.406;-4.518;2023-03-14T13:33:14;0.50;0.00;0.00
74086;PMS7003;62445;48.406;-4.518;2023-03-14T13:35:43;0.00;0.00;0.00
74086;PMS7003;62445;48.406;-4.518;2023-03-14T13:38:29;0.00;0.00;0.00
74086;PMS7003;62445;48.406;-4.518;2023-03-14T13:40:57;0.00;0.00;0.00
74086;PMS7003;62445;48.406;-4.518;2023-03-14T13:43:32;0.00;0.00;0.00
74086;PMS7003;62445;48.406;-4.518;2023-03-14T13:46:01;0.00;0.00;0.00
74086;PMS7003;62445;48.406;-4.518;2023-03-14T13:48:50;0.00;0.00;0.00
74086;PMS7003;62445;48.406;-4.518;2023-03-14T13:51:18;0.00;0.00;0.00
74086;PMS7003;62445;48.406;-4.518;2023-03-14T13:56:11;0.00;0.00;0.00
74086;PMS7003;62445;48.406;-4.518;2023-03-14T13:58:37;0.00;0.00;0.00
74086;PMS7003;62445;48.406;-4.518;2023-03-14T14:03:40;0.00;0.00;0.00
74086;PMS7003;62445;48.406;-4.518;2023-03-14T14:06:10;0.00;0.00;0.00
74086;PMS7003;62445;48.406;-4.518;2023-03-14T14:08:44;0.00;0.00;0.00
74086;PMS7003;62445;48.406;-4.518;2023-03-14T14:11:11;0.00;0.00;0.00
74086;PMS7003;62445;48.406;-4.518;2023-03-14T14:14:03;0.00;0.00;0.00
74086;PMS7003;62445;48.406;-4.518;2023-03-14T14:16:31;0.00;0.00;0.00
74086;PMS7003;62445;48.406;-4.518;2023-03-14T14:18:57;0.00;0.00;0.00
74086;PMS7003;62445;48.406;-4.518;2023-03-14T14:21:24;0.00;0.00;0.00
74086;PMS7003;62445;48.406;-4.518;2023-03-14T14:23:51;0.00;0.00;0.00
74086;PMS7003;62445;48.406;-4.518;2023-03-14T14:26:17;0.00;0.00;0.00
74086;PMS7003;62445;48.406;-4.518;2023-03-14T14:28:44;1.00;0.00;0.00
74086;PMS7003;62445;48.406;-4.518;2023-03-14T14:34:01;0.00;0.00;0.00
74086;PMS7003;62445;48.406;-4.518;2023-03-14T14:36:38;0.00;0.00;0.00
74086;PMS7003;62445;48.406;-4.518;2023-03-14T14:41:47;0.00;0.00;0.00
74086;PMS7003;62445;48.406;-4.518;2023-03-14T14:44:14;0.00;0.00;0.00
74086;PMS7003;62445;48.406;-4.518;2023-03-14T14:46:45;0.00;0.00;0.00
74086;PMS7003;62445;48.406;-4.518;2023-03-14T14:49:15;0.00;0.00;0.00
74086;PMS7003;62445;48.406;-4.518;2023-03-14T14:51:47;0.00;0.00;0.00
74086;PMS7003;62445;48.406;-4.518;2023-03-14T14:54:18;0.00;0.00;0.00
74086;PMS7003;62445;48.406;-4.518;2023-03-14T14:57:01;0.00;0.00;0.00
74086;PMS7003;62445;48.406;-4.518;2023-03-14T14:59:28;0.00;0.00;0.00
74086;PMS7003;62445;48.406;-4.518;2023-03-14T15:01:57;0.00;0.00;0.00
74086;PMS7003;62445;48.406;-4.518;2023-03-14T15:04:25;0.00;0.00;0.00
74086;PMS7003;62445;48.406;-4.518;2023-03-14T15:06:51;0.00;0.00;0.00
74086;PMS7003;62445;48.406;-4.518;2023-03-14T15:09:18;0.00;0.00;0.00
74086;PMS7003;62445;48.406;-4.518;2023-03-14T15:11:44;0.00;0.00;0.00
74086;PMS7003;62445;48.406;-4.518;2023-03-14T15:14:10;0.00;0.00;0.00
74086;PMS7003;62445;48.406;-4.518;2023-03-14T15:16:36;1.00;0.00;0.00
74086;PMS7003;62445;48.406;-4.518;2023-03-14T15:19:02;0.00;0.00;0.00
74086;PMS7003;62445;48.406;-4.518;2023-03-14T15:21:34;0.00;0.00;0.00
74086;PMS7003;62445;48.406;-4.518;2023-03-14T15:24:00;0.00;0.00;0.00
74086;PMS7003;62445;48.406;-4.518;2023-03-14T15:26:25;0.00;0.00;0.00
74086;PMS7003;62445;48.406;-4.518;2023-03-14T15:28:52;0.00;0.00;0.00
74086;PMS7003;62445;48.406;-4.518;2023-03-14T15:31:18;0.00;0.00;0.00
74086;PMS7003;62445;48.406;-4.518;2023-03-14T15:33:46;2.00;0.00;0.00
74086;PMS7003;62445;48.406;-4.518;2023-03-14T15:38:45;0.00;0.00;0.00
74086;PMS7003;62445;48.406;-4.518;2023-03-14T15:41:11;0.00;0.00;0.00
74086;PMS7003;62445;48.406;-4.518;2023-03-14T15:43:36;1.00;0.00;0.00